Adena, Ohio
Current Conditions -  °F | °C
As of 2:53 PM on Friday 31 Oct 2014 (Local Time) from KHLG Reporting Station
Light Rain Light Rain  
Wind Chill: 43°   Ceiling: 2600
Heat Index: 43°   Visibility: 10mi
Dew Point: 38°   Wind: 3mph
Humidity: 82%   Direction: 200°SSW
Pressure: 29.87"   Gusts: NA
Location:  40.22°N, 80.87°W
Report Text: KHLG 311853Z 20003KT 10SM -RA SCT017 BKN026 OVC055 06/03 A2987 RMK AO2 SLP121 P0001 T00610033
Loading
Personal Weather Stations






























Interactive Weather Map
Tropical Storm Tracking
New forecast layout! Learn more

10-Day Weather Forecast

Advertisements
Track Severe Weather on mobile